Pagrindinis puslapis
METAR-TAF:

METAR-TAF

Oro uostai :

Kamišlis, Sirija

platuma: 37-03N, ilguma: 041-13E, Aukštis: 455 m

Dabartinis oras

Ataskaita buvo paskelbta 54 minutes, ne 09:00 UTC
Vėjas 12 kt iš Rytų
Temperatūra 25°C
Drėgmė 18%
Slėgis 1018 hPa
Matomumas: 8000 m
Išsisklaidę debesys ne aukštis 2600 ft
Su prošvaistėmis ne aukštis 10000 ft

METAR: OSKL 270900Z 08012KT 8000 SCT026 BKN100 25/M01 Q1018

Laikas: 12:54 (09:54 UTC)


TAF: trūkstamas

Orai ataskaitas ir orų prognozės (METAR, TAF).

turimą stotys yra geltonos ir raudonos taškus žemėlapyje.

Perkelti pele per norėdami pamatyti stoties vardą.

Tada spustelėkite, norėdami matyti oro stebėjimo ir prognozės.

Norėdami pakeisti žemėlapį: spustelėkite ant žalios mygtukų su juodo kryžiaus žemyn,; žalią mygtuką su brūkšneliu, jei norite nutolinti; arba žalių rodyklių gretimoms žemėlapius.


METAR-TAF: